• Join FlightAware (Why Join?)
  • Login
  • US Flag 
01:30AM EDT


 

Airport Tracker/Info


-or-


 

Live Flight TrackerFlight Track Log ✈ N41WM ✈ 04-Sep-2013 ✈ KBDL - KFRG

Flight Track Log - Related Links

Times and Time Zones

All times are in EDT time to prevent confusion due to time zone crossing. See the N41WM flight status page for this flight to view local times or setup timezone preferences in your user account.

Time Position Orientation Groundspeed Altitude Reporting Facility
EDT Latitude Longitude Course Direction KTS MPH feet Rate Location/Type
01:17PM 41.5019 -72.6811 172° South 115 132 4,500  Level Boston Center
01:18PM 41.4728 -72.6756 172° South 106 122 4,600  Climbing Boston Center
01:19PM 41.4456 -72.6867 197° South 100 115 4,500  Descending Boston Center
01:21PM 41.4000 -72.7000 192° South 95 109 4,600  Climbing New York TRACON
01:22PM 41.3833 -72.7167 217° Southwest 91 105 4,500 -60 Descending New York TRACON
01:23PM 41.3500 -72.7167 180° South 94 108 4,500  Level New York TRACON
01:24PM 41.3333 -72.7333 217° Southwest 94 108 4,600  Climbing New York TRACON
01:25PM 41.3000 -72.7500 201° Southwest 98 113 4,600  Level New York TRACON
01:26PM 41.2833 -72.7500 180° South 95 109 4,600 -60 Level New York TRACON
01:27PM 41.2500 -72.7667 201° Southwest 102 117 4,500 -60 Descending New York TRACON
01:28PM 41.2333 -72.7667 180° South 92 106 4,500  Level New York TRACON
01:29PM 41.2000 -72.7833 201° Southwest 96 110 4,600  Climbing New York TRACON
01:30PM 41.1833 -72.7833 180° South 103 119 4,600 -60 Level New York TRACON
01:31PM 41.1500 -72.7833 180° South 106 122 4,500 -60 Descending New York TRACON
01:32PM 41.1167 -72.8000 201° Southwest 98 113 4,500  Level New York TRACON
01:33PM 41.1000 -72.8000 180° South 98 113 4,600 60 Climbing New York TRACON
01:34PM 41.0667 -72.8167 201° Southwest 107 123 4,700  Climbing New York TRACON
01:35PM 41.0333 -72.8167 180° South 107 123 4,600 -60 Descending New York TRACON
01:36PM 41.0000 -72.8167 180° South 107 123 4,600 -180 Level New York TRACON
01:37PM 40.9833 -72.8333 217° Southwest 114 131 4,300 -360 Descending New York TRACON
01:38PM 40.9500 -72.8333 180° South 111 128 4,000 -420 Descending New York TRACON
01:39PM 40.9167 -72.8500 201° Southwest 101 116 3,500 -540 Descending New York TRACON
01:41PM 40.8883 -72.9359 229° Southwest  Level Estimated
01:48PM 40.7874 -73.2384 246° West  Level FlightAware Approximate
01:49PM 40.7730 -73.2816 246° West  Level FlightAware Approximate
01:50PM 40.7585 -73.3247 246° West  Level FlightAware Approximate
01:51PM 40.7440 -73.3679 229° Southwest  Level Estimated
01:52PM 40.7167 -73.4000 229° Southwest  Level FlightAware Approximate
01:53PM 40.7288 -73.4134 229° Southwest  Level Estimated
01:54PM 40.7288 -73.4134 229° Southwest  Level Estimated
01:55PM 40.7288 -73.4134 229° Southwest  Level Estimated
01:56PM 40.7288 -73.4134 229° Southwest  Level Estimated
01:57PM 40.7288 -73.4134 229° Southwest  Level Estimated
01:58PM 40.7288 -73.4134 229° Southwest  Level Estimated
01:59PM 40.7288 -73.4134 229° Southwest  Level Estimated
02:00PM 40.7288 -73.4134 229° Southwest  Level Estimated
02:01PM 40.7288 -73.4134 229° Southwest  Level Estimated
02:02PM 40.7288 -73.4134 229° Southwest  Level Estimated
02:03PM 40.7288 -73.4134 229° Southwest  Level Estimated
02:04PM 40.7288 -73.4134 229° Southwest  Level Estimated
02:05PM 40.7288 -73.4134 229° Southwest  Level Estimated
02:06PM 40.7288 -73.4134 229° Southwest  Level Estimated
02:07PM 40.7288 -73.4134 229° Southwest  Level Estimated
02:08PM 40.7288 -73.4134 229° Southwest  Level Estimated
02:09PM 40.7288 -73.4134 229° Southwest  Level Estimated
02:10PM 40.7288 -73.4134 229° Southwest  Level Estimated
02:11PM 40.7288 -73.4134 229° Southwest  Level Estimated
02:12PM 40.7288 -73.4134 229° Southwest  Level Estimated
02:13PM 40.7288 -73.4134 229° Southwest  Level Estimated